createdAt,value
2018-06-09T00:01:04.027Z,29.97
2018-06-09T00:03:32.134Z,33.17
2018-06-09T00:06:00.283Z,34.27
2018-06-09T00:08:28.402Z,34.77
2018-06-09T00:10:56.530Z,28.50
2018-06-09T00:13:24.637Z,37.53
2018-06-09T00:15:52.763Z,31.50
2018-06-09T00:18:20.882Z,35.20
2018-06-09T00:20:49.006Z,37.13
2018-06-09T00:23:17.127Z,29.83
2018-06-09T00:25:45.250Z,29.40
2018-06-09T00:28:13.406Z,30.43
2018-06-09T00:30:41.539Z,28.70
2018-06-09T00:33:09.671Z,29.90
2018-06-09T00:35:37.826Z,35.93
2018-06-09T00:38:05.939Z,34.57
2018-06-09T00:40:34.066Z,22.93
2018-06-09T00:43:02.190Z,29.30
2018-06-09T00:45:30.310Z,25.50
2018-06-09T00:47:58.471Z,24.77
2018-06-09T00:50:26.605Z,26.43
2018-06-09T00:52:54.714Z,32.83
2018-06-09T00:55:22.829Z,33.03
2018-06-09T00:57:50.960Z,35.57
2018-06-09T01:00:19.118Z,34.40
2018-06-09T01:02:47.251Z,30.63
2018-06-09T01:05:15.395Z,30.07
2018-06-09T01:07:43.541Z,34.33
2018-06-09T01:10:11.658Z,34.90
2018-06-09T01:12:39.795Z,30.50
2018-06-09T01:15:07.920Z,23.17
2018-06-09T01:17:36.059Z,20.93
2018-06-09T01:20:04.193Z,26.10
2018-06-09T01:22:32.322Z,28.17
2018-06-09T01:25:00.455Z,26.93
2018-06-09T01:27:28.583Z,24.13
2018-06-09T01:29:56.700Z,27.00
2018-06-09T01:32:24.817Z,27.50
2018-06-09T01:34:52.942Z,27.27
2018-06-09T01:37:21.075Z,25.33
2018-06-09T01:39:49.199Z,25.43
2018-06-09T01:42:17.337Z,19.80
2018-06-09T01:44:45.446Z,20.70
2018-06-09T01:47:13.574Z,20.27
2018-06-09T01:49:41.710Z,21.87
2018-06-09T01:52:09.856Z,23.77
2018-06-09T01:54:37.991Z,25.87
2018-06-09T01:57:06.126Z,22.93
2018-06-09T01:59:34.278Z,17.80
2018-06-09T02:02:02.395Z,17.70
2018-06-09T02:04:30.524Z,19.50
2018-06-09T02:06:58.646Z,18.00
2018-06-09T02:09:26.757Z,16.13
2018-06-09T02:11:54.896Z,14.93
2018-06-09T02:14:23.010Z,15.10
2018-06-09T02:16:51.189Z,15.03
2018-06-09T02:19:19.086Z,15.27
2018-06-09T02:21:47.222Z,17.27
2018-06-09T02:24:15.339Z,18.67
2018-06-09T02:26:43.474Z,15.47
2018-06-09T02:29:11.638Z,16.47
2018-06-09T02:31:39.749Z,17.20
2018-06-09T02:34:07.858Z,16.37
2018-06-09T02:36:35.975Z,15.83
2018-06-09T02:39:06.754Z,19.90
2018-06-09T02:41:34.964Z,17.13
2018-06-09T02:44:03.088Z,19.23
2018-06-09T02:46:31.207Z,19.70
2018-06-09T02:48:59.349Z,18.13
2018-06-09T02:51:27.486Z,16.10
2018-06-09T02:53:56.353Z,17.53
2018-06-09T02:56:24.487Z,16.90
2018-06-09T02:58:52.619Z,16.93
2018-06-09T03:01:20.728Z,16.73
2018-06-09T03:03:48.850Z,18.40
2018-06-09T03:06:16.971Z,17.57
2018-06-09T03:08:45.096Z,17.23
2018-06-09T03:11:13.229Z,18.53
2018-06-09T03:13:41.343Z,23.47
2018-06-09T03:16:09.462Z,20.20
2018-06-09T03:18:37.592Z,17.33
2018-06-09T03:21:05.745Z,18.03
2018-06-09T03:23:33.895Z,18.23
2018-06-09T03:26:02.007Z,17.80
2018-06-09T03:28:30.144Z,19.20
2018-06-09T03:30:58.311Z,23.10
2018-06-09T03:33:26.373Z,17.80
2018-06-09T03:35:54.473Z,16.60
2018-06-09T03:38:22.600Z,16.93
2018-06-09T03:40:50.698Z,15.97
2018-06-09T03:43:18.850Z,17.00
2018-06-09T03:45:46.938Z,16.03
2018-06-09T03:48:15.081Z,19.70
2018-06-09T03:50:43.194Z,19.53
2018-06-09T03:53:11.318Z,24.67
2018-06-09T03:55:39.446Z,23.90
2018-06-09T03:58:07.575Z,17.03
2018-06-09T04:00:35.697Z,17.13
2018-06-09T04:03:03.835Z,15.10
2018-06-09T04:05:31.952Z,14.13
2018-06-09T04:08:00.059Z,13.80
2018-06-09T04:10:28.192Z,13.80
2018-06-09T04:12:56.335Z,12.67
2018-06-09T04:15:24.467Z,11.80
2018-06-09T04:17:52.599Z,11.83
2018-06-09T04:20:20.718Z,11.27
2018-06-09T04:22:48.842Z,12.40
2018-06-09T04:25:16.951Z,10.67
2018-06-09T04:27:45.071Z,9.57
2018-06-09T04:30:13.185Z,10.43
2018-06-09T04:32:41.313Z,10.60
2018-06-09T04:35:09.430Z,11.27
2018-06-09T04:37:37.563Z,12.00
2018-06-09T04:40:05.729Z,11.93
2018-06-09T04:42:33.835Z,12.83
2018-06-09T04:45:01.956Z,12.20
2018-06-09T04:47:30.066Z,13.27
2018-06-09T04:49:58.207Z,11.00
2018-06-09T04:52:26.322Z,13.37
2018-06-09T04:54:54.452Z,12.03
2018-06-09T04:57:22.577Z,12.97
2018-06-09T04:59:50.696Z,12.53
2018-06-09T05:02:18.821Z,13.57
2018-06-09T05:04:46.946Z,11.23
2018-06-09T05:07:15.089Z,12.97
2018-06-09T05:09:43.162Z,11.60
2018-06-09T05:12:11.258Z,12.20
2018-06-09T05:14:39.389Z,11.43
2018-06-09T05:17:07.508Z,10.93
2018-06-09T05:19:35.643Z,11.37
2018-06-09T05:22:03.778Z,11.00
2018-06-09T05:24:31.930Z,11.30
2018-06-09T05:27:00.048Z,11.33
2018-06-09T05:29:28.149Z,12.43
2018-06-09T05:31:57.082Z,13.27
2018-06-09T05:34:25.187Z,12.47
2018-06-09T05:36:53.315Z,11.93
2018-06-09T05:39:21.438Z,13.10
2018-06-09T05:41:49.572Z,13.70
2018-06-09T05:44:17.686Z,11.97
2018-06-09T05:46:45.810Z,13.10
2018-06-09T05:49:13.922Z,13.03
2018-06-09T05:51:42.059Z,15.33
2018-06-09T05:54:10.182Z,13.17
2018-06-09T05:56:38.301Z,12.07
2018-06-09T05:59:06.427Z,12.67
2018-06-09T06:01:34.575Z,12.47
2018-06-09T06:04:02.722Z,12.47
2018-06-09T06:06:30.805Z,11.10
2018-06-09T06:08:58.922Z,11.33
2018-06-09T06:11:27.046Z,11.43
2018-06-09T06:13:55.167Z,11.73
2018-06-09T06:16:23.288Z,11.87
2018-06-09T06:18:51.455Z,11.67
2018-06-09T06:21:19.539Z,12.17
2018-06-09T06:23:47.674Z,11.73
2018-06-09T06:26:15.836Z,11.93
2018-06-09T06:28:43.999Z,12.63
2018-06-09T06:31:12.102Z,12.27
2018-06-09T06:33:40.215Z,12.60
2018-06-09T06:36:08.321Z,11.67
2018-06-09T06:38:36.450Z,13.07
2018-06-09T06:41:04.561Z,13.93
2018-06-09T06:43:32.682Z,13.30
2018-06-09T06:46:00.801Z,12.60
2018-06-09T06:48:28.941Z,12.33
2018-06-09T06:50:57.059Z,12.00
2018-06-09T06:53:25.187Z,11.53
2018-06-09T06:55:53.295Z,12.23
2018-06-09T06:58:21.417Z,13.10
2018-06-09T07:00:49.546Z,12.87
2018-06-09T07:03:17.696Z,12.57
2018-06-09T07:05:45.816Z,12.67
2018-06-09T07:08:13.942Z,12.13
2018-06-09T07:10:42.046Z,13.10
2018-06-09T07:13:10.211Z,12.83
2018-06-09T07:15:38.361Z,13.07
2018-06-09T07:18:06.474Z,11.87
2018-06-09T07:20:34.607Z,12.93
2018-06-09T07:23:02.732Z,12.97
2018-06-09T07:25:30.888Z,12.07
2018-06-09T07:27:59.022Z,11.80
2018-06-09T07:30:27.166Z,12.70
2018-06-09T07:32:55.287Z,14.17
2018-06-09T07:35:23.422Z,12.40
2018-06-09T07:37:51.553Z,13.33
2018-06-09T07:40:19.674Z,13.20
2018-06-09T07:42:47.807Z,13.17
2018-06-09T07:45:15.934Z,14.90
2018-06-09T07:47:44.082Z,13.57
2018-06-09T07:50:12.198Z,12.73
2018-06-09T07:52:40.382Z,14.00
2018-06-09T07:55:08.528Z,13.93
2018-06-09T07:57:36.642Z,14.10
2018-06-09T08:00:04.785Z,14.70
2018-06-09T08:02:32.908Z,13.73
2018-06-09T08:05:01.023Z,14.70
2018-06-09T08:07:29.151Z,13.80
2018-06-09T08:09:57.270Z,15.57
2018-06-09T08:12:25.377Z,15.80
2018-06-09T08:14:53.513Z,14.57
2018-06-09T08:17:21.684Z,14.57
2018-06-09T08:19:49.801Z,14.60
2018-06-09T08:22:17.926Z,14.07
2018-06-09T08:24:46.042Z,14.40
2018-06-09T08:27:20.711Z,14.87
2018-06-09T08:29:48.823Z,14.33
2018-06-09T08:32:16.947Z,15.70
2018-06-09T08:34:45.068Z,15.20
2018-06-09T08:37:13.170Z,15.70
2018-06-09T08:39:41.298Z,16.17
2018-06-09T08:42:09.436Z,15.30
2018-06-09T08:44:37.578Z,15.63
2018-06-09T08:47:05.686Z,15.53
2018-06-09T08:49:33.804Z,15.37
2018-06-09T08:52:01.935Z,16.53
2018-06-09T08:54:30.063Z,14.83
2018-06-09T08:56:58.191Z,15.00
2018-06-09T08:59:26.303Z,14.27
2018-06-09T09:01:54.420Z,14.63
2018-06-09T09:04:22.555Z,16.60
2018-06-09T09:06:50.671Z,14.93
2018-06-09T09:09:18.823Z,14.67
2018-06-09T09:11:46.927Z,16.67
2018-06-09T09:14:15.102Z,16.47
2018-06-09T09:16:43.216Z,14.83
2018-06-09T09:19:11.350Z,13.97
2018-06-09T09:21:39.454Z,15.50
2018-06-09T09:24:07.598Z,15.20
2018-06-09T09:26:35.709Z,15.20
2018-06-09T09:29:03.842Z,15.50
2018-06-09T09:31:32.004Z,15.57
2018-06-09T09:34:00.122Z,15.40
2018-06-09T09:36:28.247Z,14.17
2018-06-09T09:38:56.374Z,14.60
2018-06-09T09:41:24.493Z,16.00
2018-06-09T09:43:52.606Z,15.47
2018-06-09T09:46:20.786Z,15.30
2018-06-09T09:48:48.871Z,14.37
2018-06-09T09:51:16.985Z,14.47
2018-06-09T09:53:45.099Z,14.93
2018-06-09T09:56:13.258Z,14.57
2018-06-09T09:58:41.390Z,14.70
2018-06-09T10:01:09.530Z,14.40
2018-06-09T10:03:37.707Z,15.47
2018-06-09T10:06:05.854Z,14.67
2018-06-09T10:08:33.974Z,14.77
2018-06-09T10:11:02.111Z,14.07
2018-06-09T10:13:30.240Z,14.90
2018-06-09T10:15:58.366Z,14.97
2018-06-09T10:18:26.511Z,14.77
2018-06-09T10:20:54.631Z,14.60
2018-06-09T10:23:22.746Z,14.70
2018-06-09T10:25:50.874Z,14.00
2018-06-09T10:28:18.995Z,14.40
2018-06-09T10:30:47.097Z,14.60
2018-06-09T10:33:15.219Z,13.60
2018-06-09T10:35:43.357Z,13.40
2018-06-09T10:38:11.483Z,13.50
2018-06-09T10:40:39.613Z,13.83
2018-06-09T10:43:07.726Z,14.10
2018-06-09T10:45:35.863Z,12.70
2018-06-09T10:48:03.974Z,13.07
2018-06-09T10:50:32.086Z,13.37
2018-06-09T10:53:00.231Z,13.33
2018-06-09T10:55:28.345Z,11.90
2018-06-09T10:57:56.465Z,12.57
2018-06-09T11:00:24.581Z,13.37
2018-06-09T11:02:52.686Z,13.57
2018-06-09T11:05:20.591Z,12.60
2018-06-09T11:07:48.739Z,13.07
2018-06-09T11:10:16.870Z,12.00
2018-06-09T11:12:44.978Z,11.77
2018-06-09T11:15:13.131Z,11.97
2018-06-09T11:17:41.273Z,12.83
2018-06-09T11:20:09.402Z,12.53
2018-06-09T11:22:39.575Z,13.93
2018-06-09T11:25:07.699Z,12.80
2018-06-09T11:27:35.837Z,12.37
2018-06-09T11:30:04.012Z,12.37
2018-06-09T11:32:32.146Z,11.73
2018-06-09T11:35:00.258Z,11.33
2018-06-09T11:37:28.383Z,12.33
2018-06-09T11:39:56.481Z,11.53
2018-06-09T11:44:31.414Z,12.17
2018-06-09T11:46:59.539Z,11.60
2018-06-09T11:49:27.680Z,11.07
2018-06-09T11:51:55.823Z,11.47
2018-06-09T11:54:23.955Z,11.63
2018-06-09T11:56:52.087Z,12.03
2018-06-09T11:59:20.201Z,11.83
2018-06-09T12:01:48.408Z,11.90
2018-06-09T12:04:16.491Z,11.67
2018-06-09T12:06:44.651Z,11.17
2018-06-09T12:09:12.762Z,11.40
2018-06-09T12:11:40.911Z,11.37
2018-06-09T12:14:09.018Z,11.93
2018-06-09T12:16:37.170Z,11.93
2018-06-09T12:19:05.347Z,10.67
2018-06-09T12:21:33.460Z,11.00
2018-06-09T12:24:01.598Z,10.97
2018-06-09T12:26:29.715Z,11.60
2018-06-09T12:28:57.822Z,11.03
2018-06-09T12:31:25.951Z,10.80
2018-06-09T12:33:54.068Z,11.10
2018-06-09T12:36:22.190Z,11.67
2018-06-09T12:38:50.559Z,11.03
2018-06-09T12:41:18.688Z,11.30
2018-06-09T12:43:46.816Z,12.13
2018-06-09T12:46:14.937Z,12.20
2018-06-09T12:48:43.068Z,11.40
2018-06-09T12:51:11.170Z,12.80
2018-06-09T12:53:39.286Z,11.57
2018-06-09T12:56:07.458Z,10.10
2018-06-09T12:58:35.592Z,10.23
2018-06-09T13:01:03.754Z,9.30
2018-06-09T13:03:31.869Z,8.23
2018-06-09T13:05:59.990Z,7.70
2018-06-09T13:08:28.593Z,7.57
2018-06-09T13:10:56.768Z,7.57
2018-06-09T13:13:24.956Z,7.50
2018-06-09T13:15:53.089Z,7.73
2018-06-09T13:18:21.229Z,8.08
2018-06-09T13:20:49.360Z,7.70
2018-06-09T13:23:17.523Z,8.70
2018-06-09T13:25:45.675Z,9.27
2018-06-09T13:28:13.842Z,9.60
2018-06-09T13:30:42.007Z,11.93
2018-06-09T13:33:10.154Z,15.13
2018-06-09T13:35:38.303Z,17.77
2018-06-09T13:38:06.467Z,15.73
2018-06-09T13:40:34.606Z,19.90
2018-06-09T13:43:02.783Z,19.70
2018-06-09T13:45:30.927Z,19.27
2018-06-09T13:47:59.071Z,20.97
2018-06-09T13:50:27.247Z,18.07
2018-06-09T13:52:55.386Z,20.07
2018-06-09T13:55:23.544Z,18.80
2018-06-09T13:57:51.703Z,18.40
2018-06-09T14:00:19.838Z,21.40
2018-06-09T14:02:47.965Z,21.47
2018-06-09T14:05:16.116Z,25.30
2018-06-09T14:07:44.242Z,23.33
2018-06-09T14:10:12.368Z,25.10
2018-06-09T14:12:40.538Z,21.07
2018-06-09T14:15:08.662Z,21.77
2018-06-09T14:17:36.825Z,22.63
2018-06-09T14:20:04.926Z,19.63
2018-06-09T14:22:33.075Z,19.87
2018-06-09T14:25:01.204Z,21.77
2018-06-09T14:27:29.355Z,19.07
2018-06-09T14:29:57.481Z,20.87
2018-06-09T14:32:25.642Z,24.73
2018-06-09T14:34:53.781Z,22.53
2018-06-09T14:37:21.918Z,22.97
2018-06-09T14:39:50.065Z,20.60
2018-06-09T14:42:18.210Z,20.93
2018-06-09T14:44:46.347Z,24.47
2018-06-09T14:47:14.475Z,23.60
2018-06-09T14:49:42.638Z,26.93
2018-06-09T14:52:10.746Z,25.23
2018-06-09T14:54:38.881Z,24.60
2018-06-09T14:57:06.999Z,22.83
2018-06-09T14:59:35.154Z,23.43
2018-06-09T15:02:03.302Z,17.90
2018-06-09T15:04:31.466Z,21.07
2018-06-09T15:06:59.590Z,22.30
2018-06-09T15:09:27.742Z,15.53
2018-06-09T15:11:55.861Z,14.27
2018-06-09T15:14:24.010Z,11.13
2018-06-09T15:16:52.126Z,10.30
2018-06-09T15:19:20.259Z,11.50
2018-06-09T15:21:48.381Z,9.27
2018-06-09T15:24:16.510Z,8.80
2018-06-09T15:26:44.642Z,8.83
2018-06-09T15:29:12.754Z,8.70
2018-06-09T15:31:40.875Z,8.70
2018-06-09T15:34:09.020Z,9.93
2018-06-09T15:36:37.142Z,10.37
2018-06-09T15:39:07.462Z,11.87
2018-06-09T15:41:35.590Z,12.53
2018-06-09T15:44:03.711Z,11.83
2018-06-09T15:46:31.866Z,8.70
2018-06-09T15:48:59.963Z,8.77
2018-06-09T15:51:28.097Z,10.40
2018-06-09T15:53:56.207Z,10.53
2018-06-09T15:56:24.338Z,9.17
2018-06-09T15:58:52.454Z,7.70
2018-06-09T16:01:20.608Z,8.90
2018-06-09T16:03:48.730Z,8.60
2018-06-09T16:06:16.874Z,8.93
2018-06-09T16:08:45.024Z,9.30
2018-06-09T16:11:13.167Z,10.13
2018-06-09T16:13:41.290Z,10.37
2018-06-09T16:16:09.415Z,9.30
2018-06-09T16:18:37.534Z,9.50
2018-06-09T16:21:05.657Z,9.60
2018-06-09T16:23:33.767Z,8.43
2018-06-09T16:26:01.902Z,9.87
2018-06-09T16:28:30.030Z,10.60
2018-06-09T16:30:58.139Z,9.77
2018-06-09T16:33:26.253Z,9.17
2018-06-09T16:35:54.397Z,15.67
2018-06-09T16:38:22.522Z,14.03
2018-06-09T16:40:50.647Z,10.83
2018-06-09T16:43:18.774Z,9.47
2018-06-09T16:45:46.918Z,10.10
2018-06-09T16:48:15.018Z,8.80
2018-06-09T16:50:43.126Z,9.40
2018-06-09T16:53:11.244Z,9.47
2018-06-09T16:55:39.378Z,9.87
2018-06-09T16:58:07.490Z,8.73
2018-06-09T17:00:35.622Z,9.67
2018-06-09T17:03:03.743Z,8.97
2018-06-09T17:05:31.859Z,9.23
2018-06-09T17:07:59.999Z,9.70
2018-06-09T17:10:28.094Z,8.93
2018-06-09T17:12:56.251Z,9.53
2018-06-09T17:15:24.358Z,10.50
2018-06-09T17:17:52.477Z,10.83
2018-06-09T17:20:20.604Z,13.07
2018-06-09T17:22:48.737Z,12.03
2018-06-09T17:25:16.850Z,12.17
2018-06-09T17:27:45.007Z,12.97
2018-06-09T17:30:13.137Z,12.77
2018-06-09T17:32:41.274Z,13.10
2018-06-09T17:35:09.389Z,13.37
2018-06-09T17:37:37.523Z,13.77
2018-06-09T17:40:05.657Z,14.00
2018-06-09T17:42:33.927Z,13.30
2018-06-09T17:45:02.048Z,14.17
2018-06-09T17:47:30.157Z,14.03
2018-06-09T17:49:58.272Z,14.20
2018-06-09T17:52:26.452Z,14.50
2018-06-09T17:54:54.550Z,14.57
2018-06-09T17:57:22.749Z,15.67
2018-06-09T17:59:50.832Z,14.80
2018-06-09T18:02:18.970Z,13.97
2018-06-09T18:04:47.090Z,15.60
2018-06-09T18:07:15.218Z,16.00
2018-06-09T18:09:43.358Z,14.30
2018-06-09T18:12:11.514Z,13.53
2018-06-09T18:14:39.596Z,14.57
2018-06-09T18:17:07.715Z,14.03
2018-06-09T18:19:35.913Z,13.73
2018-06-09T18:22:03.959Z,14.03
2018-06-09T18:24:32.094Z,13.90
2018-06-09T18:27:00.224Z,13.47
2018-06-09T18:29:28.347Z,13.80
2018-06-09T18:31:56.465Z,13.90
2018-06-09T18:34:24.587Z,14.37
2018-06-09T18:36:52.701Z,13.60
2018-06-09T18:39:20.831Z,14.73
2018-06-09T18:41:48.946Z,13.83
2018-06-09T18:44:17.069Z,15.13
2018-06-09T18:46:45.204Z,16.13
2018-06-09T18:49:13.333Z,14.80
2018-06-09T18:51:41.455Z,14.17
2018-06-09T18:54:09.576Z,14.60
2018-06-09T18:56:37.692Z,14.30
2018-06-09T18:59:05.815Z,14.13
2018-06-09T19:01:33.931Z,17.13
2018-06-09T19:04:02.080Z,14.80
2018-06-09T19:06:30.163Z,14.93
2018-06-09T19:08:58.292Z,14.33
2018-06-09T19:11:26.408Z,14.47
2018-06-09T19:13:54.537Z,15.83
2018-06-09T19:16:22.671Z,13.10
2018-06-09T19:18:50.789Z,15.77
2018-06-09T19:21:18.906Z,14.57
2018-06-09T19:23:47.025Z,14.90
2018-06-09T19:26:15.146Z,15.13
2018-06-09T19:28:43.292Z,16.60
2018-06-09T19:31:11.406Z,15.13
2018-06-09T19:33:39.526Z,14.47
2018-06-09T19:36:07.633Z,14.83
2018-06-09T19:38:35.977Z,15.00
2018-06-09T19:41:04.512Z,15.57
2018-06-09T19:43:32.874Z,15.30
2018-06-09T19:46:01.048Z,15.43
2018-06-09T19:48:30.341Z,16.73
2018-06-09T19:51:00.301Z,16.53
2018-06-09T19:53:28.387Z,19.17
2018-06-09T19:55:58.039Z,17.63
2018-06-09T19:58:27.212Z,17.97
2018-06-09T20:00:55.572Z,17.40
2018-06-09T20:03:23.730Z,17.57
2018-06-09T20:05:51.806Z,19.33
2018-06-09T20:08:21.144Z,19.23
2018-06-09T20:10:50.114Z,19.87
2018-06-09T20:13:19.046Z,19.47
2018-06-09T20:15:47.230Z,20.00
2018-06-09T20:18:15.616Z,18.30
2018-06-09T20:20:44.659Z,19.73
2018-06-09T20:23:13.406Z,23.53
2018-06-09T20:25:42.239Z,18.53
2018-06-09T20:28:11.136Z,18.37
2018-06-09T20:30:39.394Z,17.50
2018-06-09T20:33:08.101Z,19.37
2018-06-09T20:35:36.888Z,20.53
2018-06-09T20:38:05.592Z,21.03
2018-06-09T20:40:34.955Z,22.33
2018-06-09T20:43:03.073Z,18.53
2018-06-09T20:45:32.356Z,18.27
2018-06-09T20:48:01.698Z,19.57
2018-06-09T20:50:31.690Z,19.53
2018-06-09T20:53:00.565Z,19.47
2018-06-09T20:55:28.711Z,17.03
2018-06-09T20:57:56.826Z,17.30
2018-06-09T21:00:24.958Z,17.30
2018-06-09T21:02:52.827Z,19.17
2018-06-09T21:05:21.009Z,19.03
2018-06-09T21:07:49.115Z,18.20
2018-06-09T21:10:17.291Z,18.03
2018-06-09T21:12:45.409Z,20.87
2018-06-09T21:15:13.530Z,20.50
2018-06-09T21:17:41.659Z,20.03
2018-06-09T21:20:09.794Z,20.07
2018-06-09T21:22:37.917Z,20.73
2018-06-09T21:25:06.127Z,20.57
2018-06-09T21:27:39.485Z,21.17
2018-06-09T21:30:12.971Z,24.00
2018-06-09T21:32:43.992Z,24.27
2018-06-09T21:35:28.979Z,22.10
2018-06-09T21:38:02.609Z,21.40
2018-06-09T21:40:36.121Z,22.80
2018-06-09T21:43:09.674Z,25.43
2018-06-09T21:45:43.158Z,22.03
2018-06-09T21:48:11.294Z,21.87
2018-06-09T21:50:39.434Z,22.27
2018-06-09T21:53:07.574Z,21.80
2018-06-09T21:55:35.685Z,24.93
2018-06-09T21:58:03.810Z,23.63
2018-06-09T22:00:31.932Z,25.40
2018-06-09T22:03:00.061Z,25.30
2018-06-09T22:05:28.181Z,26.40
2018-06-09T22:07:56.081Z,24.33
2018-06-09T22:10:24.214Z,26.77
2018-06-09T22:12:52.326Z,27.73
2018-06-09T22:15:20.426Z,25.33
2018-06-09T22:17:48.639Z,25.30
2018-06-09T22:20:16.773Z,23.03
2018-06-09T22:22:45.506Z,23.17
2018-06-09T22:25:17.842Z,22.57
2018-06-09T22:27:45.987Z,22.97
2018-06-09T22:30:14.102Z,21.37
2018-06-09T22:32:42.214Z,25.30
2018-06-09T22:35:10.318Z,21.67
2018-06-09T22:37:38.431Z,23.43
2018-06-09T22:40:06.563Z,22.33
2018-06-09T22:42:34.724Z,24.07
2018-06-09T22:45:02.818Z,24.30
2018-06-09T22:47:30.938Z,23.53
2018-06-09T22:50:03.638Z,23.60
2018-06-09T22:52:31.729Z,24.77
2018-06-09T22:54:59.855Z,24.33
2018-06-09T22:57:27.978Z,23.40
2018-06-09T22:59:56.096Z,23.10
2018-06-09T23:02:24.232Z,22.23
2018-06-09T23:04:52.327Z,23.70
2018-06-09T23:07:20.467Z,24.20
2018-06-09T23:09:48.616Z,24.90
2018-06-09T23:12:16.739Z,22.30
2018-06-09T23:14:44.866Z,23.17
2018-06-09T23:17:12.983Z,25.90
2018-06-09T23:19:41.118Z,25.63
2018-06-09T23:22:09.223Z,22.47
2018-06-09T23:24:37.391Z,23.57
2018-06-09T23:27:05.510Z,22.77
2018-06-09T23:29:33.634Z,23.77
2018-06-09T23:32:01.759Z,24.73
2018-06-09T23:34:29.903Z,25.00
2018-06-09T23:36:58.030Z,24.73
2018-06-09T23:40:14.183Z,24.13
2018-06-09T23:42:42.596Z,22.80
2018-06-09T23:45:10.710Z,21.57
2018-06-09T23:49:47.442Z,22.83
2018-06-09T23:52:15.566Z,22.60
2018-06-09T23:54:43.706Z,24.00
2018-06-09T23:57:11.821Z,24.83
2018-06-09T23:59:39.963Z,25.17
